Time;durP1;ratioP1;P1;durP2;ratioP2;P2;SDS_P1;SDS_P2;PMS_P1;PMS_P2;Temp;Humidity;BMP_temperature;BMP_pressure;BME280_temperature;BME280_humidity;BME280_pressure;Samples;Min_cycle;Max_cycle;Signal;HPM_P1;HPM_P2
2023/01/06 00:25:33;;;;;;;8.98;3.10;;;10.40;99.90;;;;;;6326735;22;20026;-93
2023/01/06 00:28:11;;;;;;;12.27;3.17;;;10.40;99.90;;;;;;6286192;22;20015;-93
2023/01/06 00:30:36;;;;;;;7.32;2.60;;;10.50;99.90;;;;;;6262903;22;20015;-93
2023/01/06 00:33:02;;;;;;;5.93;2.80;;;10.50;99.90;;;;;;6286123;22;20479;-92
2023/01/06 00:35:28;;;;;;;6.90;2.30;;;10.50;99.90;;;;;;6260777;22;20060;-92
2023/01/06 00:37:54;;;;;;;8.75;2.60;;;10.50;99.90;;;;;;6286408;22;20076;-94
2023/01/06 00:40:20;;;;;;;9.50;2.60;;;10.50;99.90;;;;;;6286630;22;20014;-94
2023/01/06 00:42:45;;;;;;;8.20;2.20;;;10.50;99.90;;;;;;6286417;22;20040;-94
2023/01/06 00:45:11;;;;;;;7.77;2.17;;;10.50;99.90;;;;;;6260564;22;20019;-93
2023/01/06 00:47:37;;;;;;;9.60;2.10;;;10.50;99.90;;;;;;6286306;22;20011;-90
2023/01/06 00:50:03;;;;;;;7.50;2.83;;;10.50;99.90;;;;;;6260967;22;20253;-95
2023/01/06 00:52:29;;;;;;;10.30;2.83;;;10.60;99.90;;;;;;6311892;22;20014;-89
2023/01/06 00:54:55;;;;;;;8.05;1.88;;;10.60;99.90;;;;;;6286349;22;20050;-93
2023/01/06 00:57:21;;;;;;;5.63;2.37;;;10.60;99.90;;;;;;6260765;22;20015;-89
2023/01/06 00:59:47;;;;;;;12.03;3.40;;;10.60;99.90;;;;;;6261398;22;20399;-92
2023/01/06 01:02:12;;;;;;;5.80;1.80;;;10.60;99.90;;;;;;6288238;22;20018;-92
2023/01/06 01:04:38;;;;;;;6.23;2.50;;;10.60;99.90;;;;;;6288480;22;20015;-91
2023/01/06 01:07:04;;;;;;;7.73;3.00;;;10.60;99.90;;;;;;6288109;22;20018;-90
2023/01/06 01:09:30;;;;;;;9.57;2.67;;;10.60;99.90;;;;;;6287917;22;20015;-91
2023/01/06 01:12:10;;;;;;;9.45;2.58;;;10.70;99.90;;;;;;6288278;22;20018;-92
2023/01/06 01:14:48;;;;;;;6.03;2.70;;;10.60;99.90;;;;;;6288148;22;20011;-92
2023/01/06 01:17:19;;;;;;;12.38;3.10;;;10.70;99.90;;;;;;6288235;22;20026;-91
2023/01/06 01:19:46;;;;;;;10.38;3.67;;;10.70;99.90;;;;;;6288387;22;20014;-92
2023/01/06 01:22:15;;;;;;;7.93;2.80;;;10.60;99.90;;;;;;6288037;22;20068;-93
2023/01/06 01:24:41;;;;;;;11.13;2.90;;;10.70;99.90;;;;;;6312446;22;20165;-92
2023/01/06 01:27:08;;;;;;;8.18;2.50;;;10.70;99.90;;;;;;6288135;22;20025;-90
2023/01/06 01:29:34;;;;;;;8.65;2.10;;;10.70;99.90;;;;;;6288188;22;20091;-92
2023/01/06 01:32:00;;;;;;;7.25;1.80;;;10.70;99.90;;;;;;6288013;22;20015;-93
2023/01/06 01:34:26;;;;;;;8.18;2.20;;;10.70;99.90;;;;;;6287891;22;20018;-89
2023/01/06 01:36:53;;;;;;;5.25;1.70;;;10.70;99.90;;;;;;6288045;22;20026;-92
2023/01/06 01:39:20;;;;;;;;;;;10.70;99.90;;;;;;6288943;22;20011;-93
2023/01/06 01:42:14;;;;;;;5.95;1.65;;;10.70;99.90;;;;;;6288166;22;19915;-94
2023/01/06 01:44:55;;;;;;;5.13;1.48;;;10.70;99.90;;;;;;6288059;22;20018;-93
2023/01/06 01:47:35;;;;;;;6.53;1.10;;;10.70;99.90;;;;;;6287961;22;20102;-92
2023/01/06 01:51:00;;;;;;;2.85;1.10;;;10.70;99.90;;;;;;6288077;22;20014;-93
2023/01/06 01:53:33;;;;;;;4.65;1.83;;;10.70;99.90;;;;;;6165749;23;20016;-95
2023/01/06 02:00:26;;;;;;;2.13;0.90;;;10.70;99.90;;;;;;6186168;23;20040;-95
2023/01/06 02:02:55;;;;;;;2.95;1.10;;;10.70;99.90;;;;;;6136452;23;20021;-94
2023/01/06 02:32:09;;;;;;;3.80;1.40;;;10.70;99.90;;;;;;6308298;22;20023;-90
2023/01/06 02:34:47;;;;;;;6.93;1.30;;;10.70;99.90;;;;;;6257049;22;20042;-91
2023/01/06 02:37:53;;;;;;;3.83;1.40;;;10.70;99.90;;;;;;6256574;22;20018;-93
2023/01/06 02:40:40;;;;;;;5.90;1.67;;;10.70;99.90;;;;;;6135966;23;20017;-93
2023/01/06 02:43:17;;;;;;;6.82;1.70;;;10.70;99.90;;;;;;6253583;22;20026;-93
2023/01/06 02:45:47;;;;;;;;;;;10.70;99.90;;;;;;6257668;22;20046;-93
2023/01/06 02:48:19;;;;;;;3.60;1.42;;;10.70;99.90;;;;;;6256643;22;19985;-93
2023/01/06 02:50:57;;;;;;;4.70;1.60;;;10.70;99.90;;;;;;6256692;22;20015;-92
2023/01/06 02:53:37;;;;;;;6.90;1.80;;;10.60;99.90;;;;;;6257143;22;20447;-93
2023/01/06 02:56:04;;;;;;;4.10;1.40;;;10.60;99.90;;;;;;6256767;22;20068;-92
2023/01/06 03:02:18;;;;;;;4.55;1.85;;;10.70;99.90;;;;;;6160827;23;20032;-93
2023/01/06 03:04:47;;;;;;;4.22;1.40;;;10.70;99.90;;;;;;6136103;23;20351;-92
2023/01/06 03:07:14;;;;;;;3.42;1.40;;;10.70;99.90;;;;;;6231282;22;20077;-92
2023/01/06 03:09:40;;;;;;;4.20;1.63;;;10.70;99.90;;;;;;6256538;22;20015;-89
2023/01/06 03:12:25;;;;;;;6.90;1.33;;;10.60;99.90;;;;;;6257054;22;20026;-93
2023/01/06 03:14:55;;;;;;;4.90;1.40;;;10.70;99.90;;;;;;6282361;22;20015;-93
2023/01/06 03:17:21;;;;;;;5.10;1.48;;;10.70;99.90;;;;;;6257524;22;20019;-92
2023/01/06 03:19:47;;;;;;;4.22;1.42;;;10.70;99.90;;;;;;6232599;22;20011;-93
2023/01/06 03:22:14;;;;;;;3.30;1.40;;;10.60;99.90;;;;;;6258128;22;20027;-91
2023/01/06 03:24:42;;;;;;;3.42;1.52;;;10.60;99.90;;;;;;6256906;22;20253;-92
2023/01/06 03:27:09;;;;;;;4.03;1.52;;;10.60;99.90;;;;;;6256396;22;20011;-93
2023/01/06 03:29:36;;;;;;;3.63;1.13;;;10.60;99.90;;;;;;6256072;22;20043;-91
2023/01/06 03:32:12;;;;;;;2.92;1.30;;;10.60;99.90;;;;;;6232057;22;20039;-94
2023/01/06 03:34:56;;;;;;;3.05;1.40;;;10.60;99.90;;;;;;6256182;22;20026;-93
2023/01/06 03:37:25;;;;;;;5.80;1.45;;;10.60;99.90;;;;;;6256141;22;20015;-92
2023/01/06 03:40:46;;;;;;;3.42;1.40;;;10.60;99.90;;;;;;6255962;22;20016;-90
2023/01/06 03:43:25;;;;;;;3.83;1.77;;;10.60;99.90;;;;;;6160326;23;20438;-93
2023/01/06 03:46:12;;;;;;;4.93;1.55;;;10.60;99.90;;;;;;6256747;22;20027;-93
2023/01/06 03:48:56;;;;;;;3.95;1.30;;;10.60;99.90;;;;;;6257550;22;20527;-94
2023/01/06 03:54:00;;;;;;;3.58;1.70;;;10.50;99.90;;;;;;6314245;22;20023;-91
2023/01/06 03:56:39;;;;;;;4.05;1.20;;;10.50;99.90;;;;;;6286727;22;20088;-95
2023/01/06 03:59:16;;;;;;;4.10;1.67;;;10.50;99.90;;;;;;6286812;22;20011;-93
2023/01/06 04:01:43;;;;;;;4.07;1.60;;;10.50;99.90;;;;;;6312620;22;20015;-93
2023/01/06 04:14:36;;;;;;;3.22;1.63;;;10.50;99.90;;;;;;6259095;22;20094;-91
2023/01/06 04:17:01;;;;;;;5.97;2.23;;;10.50;99.90;;;;;;6230739;22;20126;-91
2023/01/06 04:19:27;;;;;;;4.77;1.87;;;10.50;99.90;;;;;;6281273;22;20274;-90
2023/01/06 04:21:53;;;;;;;6.30;2.23;;;10.50;99.90;;;;;;6255833;22;20043;-89
2023/01/06 04:24:18;;;;;;;5.70;2.43;;;10.50;99.90;;;;;;6255565;22;20011;-91
2023/01/06 04:26:44;;;;;;;4.63;2.37;;;10.50;99.90;;;;;;6230301;22;20015;-90
2023/01/06 04:29:10;;;;;;;5.33;2.40;;;10.50;99.90;;;;;;6230497;22;20038;-93
2023/01/06 04:31:50;;;;;;;5.63;2.00;;;10.50;99.90;;;;;;6230157;22;20011;-95
2023/01/06 04:34:16;;;;;;;4.93;2.05;;;10.50;99.90;;;;;;6255395;22;20021;-91
2023/01/06 04:36:42;;;;;;;5.20;2.07;;;10.50;99.90;;;;;;6255925;22;20098;-90
2023/01/06 04:39:08;;;;;;;3.33;1.80;;;10.50;99.90;;;;;;6230802;22;20015;-92
2023/01/06 04:41:33;;;;;;;4.90;2.53;;;10.50;99.90;;;;;;6230830;22;20015;-91
2023/01/06 04:43:59;;;;;;;4.53;1.93;;;10.50;99.90;;;;;;6256222;22;20080;-93
2023/01/06 04:46:25;;;;;;;5.43;2.60;;;10.50;99.90;;;;;;6255938;22;20019;-92
2023/01/06 04:48:59;;;;;;;3.93;2.00;;;10.50;99.90;;;;;;6230321;22;20041;-90
2023/01/06 04:51:25;;;;;;;4.55;1.60;;;10.50;99.90;;;;;;6256172;22;20015;-92
2023/01/06 04:53:51;;;;;;;2.30;1.10;;;10.50;99.90;;;;;;6255791;22;20455;-94
2023/01/06 04:56:19;;;;;;;6.63;1.87;;;10.50;99.90;;;;;;6255425;22;20064;-92
2023/01/06 04:58:45;;;;;;;3.97;1.70;;;10.50;99.90;;;;;;6281634;22;20019;-93
2023/01/06 05:01:13;;;;;;;4.28;1.40;;;10.50;99.90;;;;;;6256279;22;20337;-92
2023/01/06 05:03:39;;;;;;;3.00;1.38;;;10.50;99.90;;;;;;6256163;22;20070;-91
2023/01/06 05:06:10;;;;;;;3.10;1.48;;;10.50;99.90;;;;;;6255710;22;20431;-95
2023/01/06 05:08:41;;;;;;;3.90;1.30;;;10.50;99.90;;;;;;6232097;22;20015;-93
2023/01/06 05:17:15;;;;;;;3.15;1.10;;;10.50;99.90;;;;;;6301733;22;20023;-94
2023/01/06 05:19:43;;;;;;;2.28;1.00;;;10.50;99.90;;;;;;6255188;22;20019;-91
2023/01/06 05:22:09;;;;;;;2.42;1.00;;;10.50;99.90;;;;;;6255805;22;20157;-94
2023/01/06 05:24:35;;;;;;;;;;;10.50;99.90;;;;;;6256215;22;20051;-94
2023/01/06 05:27:01;;;;;;;2.78;1.08;;;10.60;99.90;;;;;;6257564;22;19918;-96
2023/01/06 05:29:27;;;;;;;2.22;0.90;;;10.60;99.90;;;;;;6255691;22;20016;-92
2023/01/06 05:31:53;;;;;;;3.80;1.08;;;10.60;99.90;;;;;;6258263;22;20045;-92
2023/01/06 05:34:18;;;;;;;2.70;1.10;;;10.60;99.90;;;;;;6257509;22;20022;-92
2023/01/06 05:36:44;;;;;;;6.23;2.23;;;10.60;99.90;;;;;;6257786;22;20015;-95
2023/01/06 05:39:10;;;;;;;2.37;1.13;;;10.60;99.90;;;;;;6257343;22;20015;-94
2023/01/06 05:41:36;;;;;;;2.57;1.20;;;10.60;99.90;;;;;;6255991;22;20027;-92
2023/01/06 05:44:01;;;;;;;2.97;1.13;;;10.60;99.90;;;;;;6259890;22;20012;-94
2023/01/06 05:54:29;;;;;;;2.95;1.67;;;10.60;99.90;;;;;;6328492;22;20026;-92
2023/01/06 05:56:55;;;;;;;4.80;2.08;;;10.60;99.90;;;;;;6265974;22;20046;-96
2023/01/06 05:59:20;;;;;;;4.30;2.37;;;10.60;99.90;;;;;;6289136;22;20014;-92
2023/01/06 06:04:22;;;;;;;4.47;2.63;;;10.50;99.90;;;;;;6311459;22;20019;-95
2023/01/06 06:07:08;;;;;;;4.73;2.47;;;10.50;99.90;;;;;;6257714;22;20080;-95
2023/01/06 06:09:33;;;;;;;5.22;2.50;;;10.40;99.90;;;;;;6233900;22;20023;-94
2023/01/06 06:11:59;;;;;;;4.37;2.70;;;10.40;99.90;;;;;;6231744;22;20019;-93
2023/01/06 06:14:25;;;;;;;5.97;3.10;;;10.30;99.90;;;;;;6257276;22;20015;-93
2023/01/06 06:16:52;;;;;;;7.18;3.00;;;10.30;99.90;;;;;;6231804;22;20022;-90
2023/01/06 06:19:18;;;;;;;6.45;3.33;;;10.30;99.90;;;;;;6231956;22;20340;-90
2023/01/06 06:21:43;;;;;;;6.10;2.70;;;10.20;99.90;;;;;;6257301;22;20019;-89
2023/01/06 06:24:30;;;;;;;6.07;2.93;;;10.20;99.90;;;;;;6256651;22;20241;-91
2023/01/06 06:26:56;;;;;;;4.88;2.90;;;10.10;99.90;;;;;;6256744;22;20471;-93
2023/01/06 06:29:21;;;;;;;5.47;3.10;;;10.10;99.90;;;;;;6257038;22;20011;-92
2023/01/06 06:31:48;;;;;;;6.83;3.07;;;10.10;99.90;;;;;;6257230;22;20022;-94
2023/01/06 06:34:14;;;;;;;;;;;10.10;99.90;;;;;;6257984;22;20015;-91
2023/01/06 06:36:39;;;;;;;4.88;2.83;;;10.10;99.90;;;;;;6256755;22;19962;-93
2023/01/06 06:39:05;;;;;;;5.67;2.70;;;10.10;99.90;;;;;;6256665;22;20069;-92
2023/01/06 06:41:39;;;;;;;5.35;2.78;;;10.10;99.90;;;;;;6257817;22;20053;-92
2023/01/06 06:44:04;;;;;;;5.43;2.75;;;10.10;99.90;;;;;;6256725;22;20105;-92
2023/01/06 06:46:30;;;;;;;4.60;2.30;;;10.10;99.90;;;;;;6232012;22;20027;-92
2023/01/06 06:51:40;;;;;;;5.07;2.70;;;10.10;99.90;;;;;;6278055;22;20024;-91
2023/01/06 07:09:38;;;;;;;5.05;2.35;;;10.00;99.90;;;;;;6309176;22;20030;-90
2023/01/06 07:12:05;;;;;;;4.67;1.83;;;10.00;99.90;;;;;;6256613;22;20021;-93
2023/01/06 07:14:30;;;;;;;3.53;2.00;;;10.00;99.90;;;;;;6231128;22;20012;-92
2023/01/06 07:17:00;;;;;;;3.80;1.87;;;10.00;99.90;;;;;;6256491;22;20011;-92
2023/01/06 07:19:28;;;;;;;3.60;1.75;;;10.00;99.90;;;;;;6256448;22;20326;-92
2023/01/06 07:22:01;;;;;;;4.18;1.73;;;10.00;99.90;;;;;;6256036;22;20053;-91
2023/01/06 07:24:27;;;;;;;2.95;1.40;;;10.00;99.90;;;;;;6232613;22;20019;-90
2023/01/06 07:27:17;;;;;;;4.50;1.40;;;10.00;99.90;;;;;;6256445;22;20092;-91
2023/01/06 07:29:43;;;;;;;2.80;1.20;;;10.00;99.90;;;;;;6256060;22;20051;-95
2023/01/06 07:32:09;;;;;;;3.00;1.50;;;10.00;99.90;;;;;;6257128;22;20045;-92
2023/01/06 07:34:35;;;;;;;3.35;1.30;;;10.10;99.90;;;;;;6230818;22;20011;-92
2023/01/06 07:37:00;;;;;;;3.27;1.60;;;10.10;99.90;;;;;;6255837;22;20023;-89
2023/01/06 07:39:26;;;;;;;2.60;1.20;;;10.10;99.90;;;;;;6255891;22;20051;-87
2023/01/06 07:42:26;;;;;;;2.10;1.10;;;10.10;99.90;;;;;;6281496;22;20015;-88
2023/01/06 07:45:16;;;;;;;3.13;1.05;;;10.10;99.90;;;;;;6218723;23;20468;-89
2023/01/06 07:47:42;;;;;;;2.65;0.88;;;10.10;99.90;;;;;;6194038;23;20023;-89
2023/01/06 07:52:52;;;;;;;1.80;0.90;;;10.10;99.90;;;;;;6313589;22;20019;-89
2023/01/06 07:55:37;;;;;;;2.03;0.70;;;10.10;99.90;;;;;;6286413;22;20011;-89
2023/01/06 07:58:07;;;;;;;2.97;0.82;;;10.10;99.90;;;;;;6260316;22;20018;-88
2023/01/06 08:00:33;;;;;;;1.45;0.40;;;10.10;99.90;;;;;;6286607;22;20014;-90
2023/01/06 08:03:03;;;;;;;2.65;0.60;;;10.00;99.90;;;;;;6286713;22;20049;-90
2023/01/06 08:05:29;;;;;;;4.88;1.65;;;10.00;99.90;;;;;;6312213;22;20014;-92
2023/01/06 08:07:54;;;;;;;2.13;0.43;;;9.90;99.90;;;;;;6286557;22;20042;-89
2023/01/06 08:10:42;;;;;;;0.70;0.30;;;9.80;99.90;;;;;;6258939;22;20025;-93
2023/01/06 08:13:08;;;;;;;;;;;9.80;99.90;;;;;;6283457;22;20079;-92
2023/01/06 08:15:35;;;;;;;2.05;0.40;;;9.70;99.90;;;;;;6284716;22;19914;-91
2023/01/06 08:18:01;;;;;;;;;;;9.60;99.90;;;;;;6286395;22;20019;-92
2023/01/06 08:20:27;;;;;;;1.08;0.25;;;9.60;99.90;;;;;;6286045;22;19921;-86
2023/01/06 08:22:53;;;;;;;0.43;0.10;;;9.50;99.90;;;;;;6284850;22;20019;-91
2023/01/06 08:25:18;;;;;;;0.47;0.20;;;9.40;99.90;;;;;;6284339;22;20422;-91
2023/01/06 08:27:44;;;;;;;1.73;0.10;;;9.30;99.90;;;;;;6285912;22;20034;-91
2023/01/06 08:30:10;;;;;;;0.10;0.10;;;9.30;99.90;;;;;;6286044;22;20025;-87
2023/01/06 08:32:36;;;;;;;0.10;0.10;;;9.30;99.90;;;;;;6285725;22;20021;-88
2023/01/06 08:35:02;;;;;;;0.40;0.10;;;9.20;99.90;;;;;;6260029;22;20011;-90
2023/01/06 08:37:29;;;;;;;1.45;0.22;;;9.10;99.90;;;;;;6260897;22;20174;-91
2023/01/06 08:39:54;;;;;;;1.17;0.10;;;9.10;99.90;;;;;;6285924;22;20010;-89
2023/01/06 08:42:20;;;;;;;0.97;0.17;;;9.10;99.90;;;;;;6285929;22;20053;-89
2023/01/06 08:44:46;;;;;;;2.67;0.13;;;9.00;99.90;;;;;;6311535;22;20014;-89
2023/01/06 08:47:12;;;;;;;0.85;0.10;;;9.00;99.90;;;;;;6285947;22;20015;-92
2023/01/06 08:49:37;;;;;;;2.57;0.10;;;8.90;99.90;;;;;;6260209;22;20093;-89
2023/01/06 08:52:03;;;;;;;1.97;0.27;;;8.90;99.90;;;;;;6260166;22;20193;-88
2023/01/06 08:54:54;;;;;;;0.35;0.10;;;8.90;99.90;;;;;;6261164;22;20474;-89
2023/01/06 08:57:20;;;;;;;3.33;0.10;;;8.90;99.90;;;;;;6285990;22;20015;-91
2023/01/06 08:59:45;;;;;;;1.20;0.30;;;8.90;99.90;;;;;;6260499;22;20011;-89
2023/01/06 09:02:13;;;;;;;1.27;0.17;;;8.90;99.90;;;;;;6260496;22;20015;-90
2023/01/06 09:04:40;;;;;;;1.25;0.30;;;8.80;99.90;;;;;;6260492;22;20063;-90
2023/01/06 09:07:06;;;;;;;1.13;0.35;;;8.80;99.90;;;;;;6311489;22;20019;-90
2023/01/06 09:09:32;;;;;;;0.47;0.10;;;8.80;99.90;;;;;;6286071;22;20432;-92
2023/01/06 09:11:58;;;;;;;0.40;0.10;;;8.80;99.90;;;;;;6286410;22;20022;-91
2023/01/06 09:14:24;;;;;;;1.33;0.20;;;8.80;99.90;;;;;;6286157;22;20015;-91
2023/01/06 09:16:49;;;;;;;1.77;0.30;;;8.80;99.90;;;;;;6284885;22;20019;-90
2023/01/06 09:19:19;;;;;;;0.90;0.20;;;8.80;99.90;;;;;;6259693;22;20011;-91
2023/01/06 09:21:45;;;;;;;1.65;0.30;;;8.80;99.90;;;;;;6287558;22;20080;-90
2023/01/06 09:24:14;;;;;;;0.43;0.30;;;8.80;99.90;;;;;;6288270;22;20007;-90
2023/01/06 09:26:40;;;;;;;1.00;0.20;;;8.80;99.90;;;;;;6287864;22;20371;-91
2023/01/06 09:59:10;;;;;;;1.25;0.57;;;8.90;99.90;;;;;;6308736;22;20456;-92
2023/01/06 10:01:53;;;;;;;1.08;0.32;;;9.00;99.90;;;;;;6257100;22;20023;-93
2023/01/06 10:04:28;;;;;;;2.85;0.30;;;9.00;99.90;;;;;;6256976;22;20007;-94
2023/01/06 10:07:18;;;;;;;3.67;0.30;;;9.10;99.90;;;;;;6257166;22;20023;-91
2023/01/06 10:10:11;;;;;;;4.35;0.40;;;9.10;99.90;;;;;;6257223;22;20332;-92
2023/01/06 10:12:46;;;;;;;2.22;0.20;;;9.10;99.90;;;;;;6256923;22;20021;-93
2023/01/06 10:19:31;;;;;;;1.95;0.30;;;9.10;99.90;;;;;;6309660;22;20056;-93
2023/01/06 10:22:22;;;;;;;4.63;0.40;;;9.10;99.90;;;;;;6241150;22;20023;-91
2023/01/06 10:25:13;;;;;;;0.57;0.17;;;9.10;99.90;;;;;;6257105;22;20098;-92
2023/01/06 10:28:17;;;;;;;3.17;0.75;;;9.10;99.90;;;;;;6243533;22;20070;-90
2023/01/06 12:21:35;;;;;;;4.72;0.90;;;9.70;99.90;;;;;;6313939;22;20027;-91
2023/01/06 13:08:47;;;;;;;1.80;0.30;;;9.80;99.90;;;;;;6306384;22;20023;-92
2023/01/06 13:37:00;;;;;;;5.07;0.55;;;9.60;99.90;;;;;;6307178;22;20027;-90
2023/01/06 14:46:24;;;;;;;4.78;0.85;;;9.30;99.90;;;;;;6300724;22;20023;-95
